sensor_id;sensor_type;location;lat;lon;timestamp;P1;durP1;ratioP1;P2;durP2;ratioP2
10727;SDS011;5415;59.322;18.246;2022-10-16T00:01:29;55.60;;;32.47;;
10727;SDS011;5415;59.322;18.246;2022-10-16T00:03:58;45.43;;;29.80;;
10727;SDS011;5415;59.322;18.246;2022-10-16T00:06:27;45.63;;;29.00;;
10727;SDS011;5415;59.322;18.246;2022-10-16T00:08:55;45.10;;;27.27;;
10727;SDS011;5415;59.322;18.246;2022-10-16T00:11:23;42.10;;;25.93;;
10727;SDS011;5415;59.322;18.246;2022-10-16T00:13:54;41.40;;;25.57;;
10727;SDS011;5415;59.322;18.246;2022-10-16T00:16:22;36.23;;;23.50;;
10727;SDS011;5415;59.322;18.246;2022-10-16T00:18:49;36.77;;;24.33;;
10727;SDS011;5415;59.322;18.246;2022-10-16T00:21:18;35.90;;;23.37;;
10727;SDS011;5415;59.322;18.246;2022-10-16T00:23:45;36.23;;;24.00;;
10727;SDS011;5415;59.322;18.246;2022-10-16T00:26:14;35.47;;;24.03;;
10727;SDS011;5415;59.322;18.246;2022-10-16T00:28:42;32.27;;;22.47;;
10727;SDS011;5415;59.322;18.246;2022-10-16T00:31:11;34.27;;;22.73;;
10727;SDS011;5415;59.322;18.246;2022-10-16T00:33:39;35.37;;;22.30;;
10727;SDS011;5415;59.322;18.246;2022-10-16T00:36:08;31.00;;;20.93;;
10727;SDS011;5415;59.322;18.246;2022-10-16T00:38:37;31.73;;;21.93;;
10727;SDS011;5415;59.322;18.246;2022-10-16T00:41:04;33.47;;;22.87;;
10727;SDS011;5415;59.322;18.246;2022-10-16T00:43:34;33.77;;;21.70;;
10727;SDS011;5415;59.322;18.246;2022-10-16T00:46:03;31.40;;;20.77;;
10727;SDS011;5415;59.322;18.246;2022-10-16T00:48:33;32.80;;;22.27;;
10727;SDS011;5415;59.322;18.246;2022-10-16T00:51:02;26.20;;;20.50;;
10727;SDS011;5415;59.322;18.246;2022-10-16T00:53:29;26.10;;;19.77;;
10727;SDS011;5415;59.322;18.246;2022-10-16T00:55:58;28.00;;;19.93;;
10727;SDS011;5415;59.322;18.246;2022-10-16T00:58:27;27.60;;;19.67;;
10727;SDS011;5415;59.322;18.246;2022-10-16T01:00:55;28.37;;;20.83;;
10727;SDS011;5415;59.322;18.246;2022-10-16T01:03:24;28.33;;;20.00;;
10727;SDS011;5415;59.322;18.246;2022-10-16T01:05:56;22.80;;;18.63;;
10727;SDS011;5415;59.322;18.246;2022-10-16T01:08:27;25.10;;;18.77;;
10727;SDS011;5415;59.322;18.246;2022-10-16T01:10:57;27.90;;;19.53;;
10727;SDS011;5415;59.322;18.246;2022-10-16T01:13:27;26.43;;;20.07;;
10727;SDS011;5415;59.322;18.246;2022-10-16T01:15:59;25.83;;;18.73;;
10727;SDS011;5415;59.322;18.246;2022-10-16T01:18:28;26.63;;;19.60;;
10727;SDS011;5415;59.322;18.246;2022-10-16T01:21:01;28.37;;;20.60;;
10727;SDS011;5415;59.322;18.246;2022-10-16T01:23:34;29.40;;;22.03;;
10727;SDS011;5415;59.322;18.246;2022-10-16T01:26:31;24.30;;;20.33;;
10727;SDS011;5415;59.322;18.246;2022-10-16T01:29:05;26.37;;;20.40;;
10727;SDS011;5415;59.322;18.246;2022-10-16T01:31:36;28.03;;;20.63;;
10727;SDS011;5415;59.322;18.246;2022-10-16T01:34:05;28.23;;;20.57;;
10727;SDS011;5415;59.322;18.246;2022-10-16T01:36:35;28.13;;;20.47;;
10727;SDS011;5415;59.322;18.246;2022-10-16T01:39:05;24.17;;;19.00;;
10727;SDS011;5415;59.322;18.246;2022-10-16T01:41:36;29.20;;;21.23;;
10727;SDS011;5415;59.322;18.246;2022-10-16T01:44:07;27.17;;;20.97;;
10727;SDS011;5415;59.322;18.246;2022-10-16T01:46:36;26.30;;;20.20;;
10727;SDS011;5415;59.322;18.246;2022-10-16T01:49:05;26.70;;;20.40;;
10727;SDS011;5415;59.322;18.246;2022-10-16T01:51:33;31.83;;;22.10;;
10727;SDS011;5415;59.322;18.246;2022-10-16T01:54:02;30.00;;;22.77;;
10727;SDS011;5415;59.322;18.246;2022-10-16T01:56:31;29.03;;;21.53;;
10727;SDS011;5415;59.322;18.246;2022-10-16T01:59:00;28.73;;;22.03;;
10727;SDS011;5415;59.322;18.246;2022-10-16T02:01:32;29.30;;;21.27;;
10727;SDS011;5415;59.322;18.246;2022-10-16T02:04:02;30.93;;;21.73;;
10727;SDS011;5415;59.322;18.246;2022-10-16T02:06:31;29.90;;;20.93;;
10727;SDS011;5415;59.322;18.246;2022-10-16T02:08:59;30.50;;;21.93;;
10727;SDS011;5415;59.322;18.246;2022-10-16T02:11:31;28.60;;;19.70;;
10727;SDS011;5415;59.322;18.246;2022-10-16T02:14:00;29.47;;;21.17;;
10727;SDS011;5415;59.322;18.246;2022-10-16T02:16:34;29.33;;;21.20;;
10727;SDS011;5415;59.322;18.246;2022-10-16T02:19:03;28.57;;;21.40;;
10727;SDS011;5415;59.322;18.246;2022-10-16T02:21:32;28.10;;;21.00;;
10727;SDS011;5415;59.322;18.246;2022-10-16T02:24:04;32.33;;;21.73;;
10727;SDS011;5415;59.322;18.246;2022-10-16T02:26:34;31.00;;;22.83;;
10727;SDS011;5415;59.322;18.246;2022-10-16T02:29:04;31.33;;;22.37;;
10727;SDS011;5415;59.322;18.246;2022-10-16T02:31:35;30.00;;;22.10;;
10727;SDS011;5415;59.322;18.246;2022-10-16T02:34:05;30.30;;;21.97;;
10727;SDS011;5415;59.322;18.246;2022-10-16T02:36:33;27.87;;;21.83;;
10727;SDS011;5415;59.322;18.246;2022-10-16T02:39:02;33.93;;;22.63;;
10727;SDS011;5415;59.322;18.246;2022-10-16T02:41:30;32.23;;;21.63;;
10727;SDS011;5415;59.322;18.246;2022-10-16T02:44:00;34.57;;;23.30;;
10727;SDS011;5415;59.322;18.246;2022-10-16T02:46:28;35.80;;;23.80;;
10727;SDS011;5415;59.322;18.246;2022-10-16T02:48:57;31.33;;;21.30;;
10727;SDS011;5415;59.322;18.246;2022-10-16T02:51:24;32.53;;;22.37;;
10727;SDS011;5415;59.322;18.246;2022-10-16T02:53:52;30.40;;;21.73;;
10727;SDS011;5415;59.322;18.246;2022-10-16T02:56:19;33.10;;;22.43;;
10727;SDS011;5415;59.322;18.246;2022-10-16T02:58:46;32.60;;;21.97;;
10727;SDS011;5415;59.322;18.246;2022-10-16T03:01:14;27.63;;;20.83;;
10727;SDS011;5415;59.322;18.246;2022-10-16T03:03:41;30.60;;;20.50;;
10727;SDS011;5415;59.322;18.246;2022-10-16T03:06:11;28.10;;;19.50;;
10727;SDS011;5415;59.322;18.246;2022-10-16T03:08:38;25.57;;;18.70;;
10727;SDS011;5415;59.322;18.246;2022-10-16T03:11:06;21.27;;;17.17;;
10727;SDS011;5415;59.322;18.246;2022-10-16T03:13:33;23.37;;;17.80;;
10727;SDS011;5415;59.322;18.246;2022-10-16T03:16:02;22.80;;;17.50;;
10727;SDS011;5415;59.322;18.246;2022-10-16T03:18:29;24.53;;;16.80;;
10727;SDS011;5415;59.322;18.246;2022-10-16T03:20:57;21.00;;;16.33;;
10727;SDS011;5415;59.322;18.246;2022-10-16T03:23:26;20.80;;;15.30;;
10727;SDS011;5415;59.322;18.246;2022-10-16T03:25:54;20.57;;;15.60;;
10727;SDS011;5415;59.322;18.246;2022-10-16T03:28:21;16.57;;;14.70;;
10727;SDS011;5415;59.322;18.246;2022-10-16T03:30:48;19.07;;;15.57;;
10727;SDS011;5415;59.322;18.246;2022-10-16T03:33:17;18.27;;;14.47;;
10727;SDS011;5415;59.322;18.246;2022-10-16T03:35:50;18.40;;;14.10;;
10727;SDS011;5415;59.322;18.246;2022-10-16T03:38:18;18.07;;;14.20;;
10727;SDS011;5415;59.322;18.246;2022-10-16T03:40:49;18.43;;;14.73;;
10727;SDS011;5415;59.322;18.246;2022-10-16T03:43:16;19.63;;;14.27;;
10727;SDS011;5415;59.322;18.246;2022-10-16T03:45:44;15.30;;;13.47;;
10727;SDS011;5415;59.322;18.246;2022-10-16T03:48:12;15.97;;;12.73;;
10727;SDS011;5415;59.322;18.246;2022-10-16T03:50:39;17.40;;;12.70;;
10727;SDS011;5415;59.322;18.246;2022-10-16T03:53:07;15.93;;;13.03;;
10727;SDS011;5415;59.322;18.246;2022-10-16T03:55:34;15.37;;;12.80;;
10727;SDS011;5415;59.322;18.246;2022-10-16T03:58:03;14.03;;;11.57;;
10727;SDS011;5415;59.322;18.246;2022-10-16T04:00:31;14.00;;;11.17;;
10727;SDS011;5415;59.322;18.246;2022-10-16T04:02:59;13.80;;;10.77;;
10727;SDS011;5415;59.322;18.246;2022-10-16T04:05:28;12.47;;;11.10;;
10727;SDS011;5415;59.322;18.246;2022-10-16T04:07:55;18.40;;;11.93;;
10727;SDS011;5415;59.322;18.246;2022-10-16T04:10:22;12.63;;;11.23;;
10727;SDS011;5415;59.322;18.246;2022-10-16T04:12:50;12.30;;;11.00;;
10727;SDS011;5415;59.322;18.246;2022-10-16T04:15:21;14.17;;;10.53;;
10727;SDS011;5415;59.322;18.246;2022-10-16T04:17:49;14.60;;;9.77;;
10727;SDS011;5415;59.322;18.246;2022-10-16T04:20:17;15.20;;;11.33;;
10727;SDS011;5415;59.322;18.246;2022-10-16T04:22:44;12.70;;;11.00;;
10727;SDS011;5415;59.322;18.246;2022-10-16T04:25:12;13.60;;;11.33;;
10727;SDS011;5415;59.322;18.246;2022-10-16T04:27:39;13.80;;;11.10;;
10727;SDS011;5415;59.322;18.246;2022-10-16T04:30:07;17.10;;;11.97;;
10727;SDS011;5415;59.322;18.246;2022-10-16T04:32:37;16.57;;;11.70;;
10727;SDS011;5415;59.322;18.246;2022-10-16T04:35:04;14.47;;;11.50;;
10727;SDS011;5415;59.322;18.246;2022-10-16T04:37:32;13.37;;;11.90;;
10727;SDS011;5415;59.322;18.246;2022-10-16T04:40:00;11.80;;;10.33;;
10727;SDS011;5415;59.322;18.246;2022-10-16T04:42:28;16.50;;;11.63;;
10727;SDS011;5415;59.322;18.246;2022-10-16T04:44:55;14.17;;;11.33;;
10727;SDS011;5415;59.322;18.246;2022-10-16T04:47:22;15.23;;;11.63;;
10727;SDS011;5415;59.322;18.246;2022-10-16T04:49:52;12.43;;;11.13;;
10727;SDS011;5415;59.322;18.246;2022-10-16T04:52:19;12.40;;;11.20;;
10727;SDS011;5415;59.322;18.246;2022-10-16T04:54:49;13.03;;;11.63;;
10727;SDS011;5415;59.322;18.246;2022-10-16T04:57:17;12.20;;;10.73;;
10727;SDS011;5415;59.322;18.246;2022-10-16T04:59:44;15.47;;;11.77;;
10727;SDS011;5415;59.322;18.246;2022-10-16T05:02:11;12.93;;;11.53;;
10727;SDS011;5415;59.322;18.246;2022-10-16T05:04:39;12.77;;;11.17;;
10727;SDS011;5415;59.322;18.246;2022-10-16T05:07:08;17.20;;;11.97;;
10727;SDS011;5415;59.322;18.246;2022-10-16T05:09:35;13.40;;;12.00;;
10727;SDS011;5415;59.322;18.246;2022-10-16T05:12:03;14.53;;;11.87;;
10727;SDS011;5415;59.322;18.246;2022-10-16T05:14:31;16.30;;;12.43;;
10727;SDS011;5415;59.322;18.246;2022-10-16T05:16:59;15.90;;;11.50;;
10727;SDS011;5415;59.322;18.246;2022-10-16T05:19:26;12.30;;;11.00;;
10727;SDS011;5415;59.322;18.246;2022-10-16T05:21:55;13.70;;;11.60;;
10727;SDS011;5415;59.322;18.246;2022-10-16T05:24:25;14.17;;;12.17;;
10727;SDS011;5415;59.322;18.246;2022-10-16T05:26:53;17.33;;;12.37;;
10727;SDS011;5415;59.322;18.246;2022-10-16T05:29:21;16.43;;;12.30;;
10727;SDS011;5415;59.322;18.246;2022-10-16T05:31:50;17.17;;;12.67;;
10727;SDS011;5415;59.322;18.246;2022-10-16T05:34:18;16.33;;;11.93;;
10727;SDS011;5415;59.322;18.246;2022-10-16T05:36:45;16.33;;;12.23;;
10727;SDS011;5415;59.322;18.246;2022-10-16T05:39:13;16.00;;;12.43;;
10727;SDS011;5415;59.322;18.246;2022-10-16T05:41:43;17.83;;;12.63;;
10727;SDS011;5415;59.322;18.246;2022-10-16T05:44:10;16.17;;;13.73;;
10727;SDS011;5415;59.322;18.246;2022-10-16T05:46:38;16.77;;;13.10;;
10727;SDS011;5415;59.322;18.246;2022-10-16T05:49:05;16.07;;;12.63;;
10727;SDS011;5415;59.322;18.246;2022-10-16T05:51:33;18.73;;;12.97;;
10727;SDS011;5415;59.322;18.246;2022-10-16T05:54:00;17.27;;;12.93;;
10727;SDS011;5415;59.322;18.246;2022-10-16T05:56:28;18.80;;;13.77;;
10727;SDS011;5415;59.322;18.246;2022-10-16T05:58:57;21.83;;;14.23;;
10727;SDS011;5415;59.322;18.246;2022-10-16T06:01:25;20.17;;;15.20;;
10727;SDS011;5415;59.322;18.246;2022-10-16T06:03:53;18.47;;;13.87;;
10727;SDS011;5415;59.322;18.246;2022-10-16T06:06:22;19.60;;;14.73;;
10727;SDS011;5415;59.322;18.246;2022-10-16T06:08:52;19.90;;;14.97;;
10727;SDS011;5415;59.322;18.246;2022-10-16T06:11:20;19.10;;;15.77;;
10727;SDS011;5415;59.322;18.246;2022-10-16T06:13:48;23.90;;;15.90;;
10727;SDS011;5415;59.322;18.246;2022-10-16T06:16:18;24.03;;;17.07;;
10727;SDS011;5415;59.322;18.246;2022-10-16T06:18:45;23.50;;;18.30;;
10727;SDS011;5415;59.322;18.246;2022-10-16T06:21:14;26.50;;;18.90;;
10727;SDS011;5415;59.322;18.246;2022-10-16T06:23:41;26.10;;;18.50;;
10727;SDS011;5415;59.322;18.246;2022-10-16T06:26:11;24.50;;;16.83;;
10727;SDS011;5415;59.322;18.246;2022-10-16T06:28:41;28.03;;;20.40;;
10727;SDS011;5415;59.322;18.246;2022-10-16T06:31:10;33.93;;;20.87;;
10727;SDS011;5415;59.322;18.246;2022-10-16T06:33:39;30.50;;;21.90;;
10727;SDS011;5415;59.322;18.246;2022-10-16T06:36:07;28.03;;;20.17;;
10727;SDS011;5415;59.322;18.246;2022-10-16T06:38:37;34.50;;;21.30;;
10727;SDS011;5415;59.322;18.246;2022-10-16T06:41:04;34.97;;;22.00;;
10727;SDS011;5415;59.322;18.246;2022-10-16T06:43:32;32.57;;;22.13;;
10727;SDS011;5415;59.322;18.246;2022-10-16T06:46:01;32.00;;;21.20;;
10727;SDS011;5415;59.322;18.246;2022-10-16T06:48:28;31.23;;;21.93;;
10727;SDS011;5415;59.322;18.246;2022-10-16T06:50:58;35.93;;;22.23;;
10727;SDS011;5415;59.322;18.246;2022-10-16T06:53:28;34.40;;;21.73;;
10727;SDS011;5415;59.322;18.246;2022-10-16T06:55:56;30.07;;;20.97;;
10727;SDS011;5415;59.322;18.246;2022-10-16T06:58:23;34.13;;;21.33;;
10727;SDS011;5415;59.322;18.246;2022-10-16T07:00:55;32.60;;;23.17;;
10727;SDS011;5415;59.322;18.246;2022-10-16T07:03:23;33.67;;;21.33;;
10727;SDS011;5415;59.322;18.246;2022-10-16T07:05:51;30.03;;;20.90;;
10727;SDS011;5415;59.322;18.246;2022-10-16T07:08:23;27.57;;;20.63;;
10727;SDS011;5415;59.322;18.246;2022-10-16T07:10:57;29.83;;;20.43;;
10727;SDS011;5415;59.322;18.246;2022-10-16T07:13:25;28.57;;;19.67;;
10727;SDS011;5415;59.322;18.246;2022-10-16T07:15:53;28.93;;;20.97;;
10727;SDS011;5415;59.322;18.246;2022-10-16T07:18:20;28.53;;;19.73;;
10727;SDS011;5415;59.322;18.246;2022-10-16T07:20:52;32.00;;;22.13;;
10727;SDS011;5415;59.322;18.246;2022-10-16T07:23:20;32.97;;;21.90;;
10727;SDS011;5415;59.322;18.246;2022-10-16T07:25:54;30.30;;;20.90;;
10727;SDS011;5415;59.322;18.246;2022-10-16T07:28:22;28.57;;;19.83;;
10727;SDS011;5415;59.322;18.246;2022-10-16T07:30:50;33.30;;;22.57;;
10727;SDS011;5415;59.322;18.246;2022-10-16T07:33:17;31.30;;;21.67;;
10727;SDS011;5415;59.322;18.246;2022-10-16T07:35:48;31.83;;;20.70;;
10727;SDS011;5415;59.322;18.246;2022-10-16T07:38:16;30.10;;;22.20;;
10727;SDS011;5415;59.322;18.246;2022-10-16T07:40:45;29.47;;;21.27;;
10727;SDS011;5415;59.322;18.246;2022-10-16T07:43:14;27.10;;;20.60;;
10727;SDS011;5415;59.322;18.246;2022-10-16T07:45:48;33.10;;;20.90;;
10727;SDS011;5415;59.322;18.246;2022-10-16T07:48:16;30.23;;;20.87;;
10727;SDS011;5415;59.322;18.246;2022-10-16T07:50:43;26.53;;;19.50;;
10727;SDS011;5415;59.322;18.246;2022-10-16T07:53:11;24.53;;;18.57;;
10727;SDS011;5415;59.322;18.246;2022-10-16T07:55:39;27.07;;;18.00;;
10727;SDS011;5415;59.322;18.246;2022-10-16T07:58:07;25.00;;;16.50;;
10727;SDS011;5415;59.322;18.246;2022-10-16T08:00:36;19.20;;;15.40;;
10727;SDS011;5415;59.322;18.246;2022-10-16T08:03:04;16.87;;;14.70;;
10727;SDS011;5415;59.322;18.246;2022-10-16T08:05:32;17.03;;;13.60;;
10727;SDS011;5415;59.322;18.246;2022-10-16T08:08:02;16.83;;;13.23;;
10727;SDS011;5415;59.322;18.246;2022-10-16T08:10:29;14.47;;;12.87;;
10727;SDS011;5415;59.322;18.246;2022-10-16T08:12:57;17.30;;;12.87;;
10727;SDS011;5415;59.322;18.246;2022-10-16T08:15:25;17.87;;;13.27;;
10727;SDS011;5415;59.322;18.246;2022-10-16T08:17:58;18.37;;;13.03;;
10727;SDS011;5415;59.322;18.246;2022-10-16T08:20:26;14.33;;;10.83;;
10727;SDS011;5415;59.322;18.246;2022-10-16T08:22:54;11.10;;;9.53;;
10727;SDS011;5415;59.322;18.246;2022-10-16T08:25:23;12.67;;;10.70;;
10727;SDS011;5415;59.322;18.246;2022-10-16T08:27:50;11.77;;;10.03;;
10727;SDS011;5415;59.322;18.246;2022-10-16T08:30:18;13.63;;;9.73;;
10727;SDS011;5415;59.322;18.246;2022-10-16T08:32:46;10.30;;;8.47;;
10727;SDS011;5415;59.322;18.246;2022-10-16T08:35:16;11.17;;;9.27;;
10727;SDS011;5415;59.322;18.246;2022-10-16T08:37:46;9.67;;;8.67;;
10727;SDS011;5415;59.322;18.246;2022-10-16T08:40:16;9.00;;;8.10;;
10727;SDS011;5415;59.322;18.246;2022-10-16T08:42:51;8.97;;;7.00;;
10727;SDS011;5415;59.322;18.246;2022-10-16T08:45:27;8.13;;;7.33;;
10727;SDS011;5415;59.322;18.246;2022-10-16T08:48:00;11.97;;;7.63;;
10727;SDS011;5415;59.322;18.246;2022-10-16T08:50:32;12.20;;;7.10;;
10727;SDS011;5415;59.322;18.246;2022-10-16T08:53:03;8.53;;;7.30;;
10727;SDS011;5415;59.322;18.246;2022-10-16T08:55:32;12.63;;;7.50;;
10727;SDS011;5415;59.322;18.246;2022-10-16T08:58:01;7.87;;;7.07;;
10727;SDS011;5415;59.322;18.246;2022-10-16T09:00:28;9.10;;;7.30;;
10727;SDS011;5415;59.322;18.246;2022-10-16T09:02:59;7.50;;;6.70;;
10727;SDS011;5415;59.322;18.246;2022-10-16T09:08:24;7.67;;;6.63;;
10727;SDS011;5415;59.322;18.246;2022-10-16T09:10:56;7.63;;;6.87;;
10727;SDS011;5415;59.322;18.246;2022-10-16T09:13:29;10.67;;;6.63;;
10727;SDS011;5415;59.322;18.246;2022-10-16T09:16:01;7.97;;;5.70;;
10727;SDS011;5415;59.322;18.246;2022-10-16T09:18:33;11.00;;;6.50;;
10727;SDS011;5415;59.322;18.246;2022-10-16T09:21:05;6.57;;;5.90;;
10727;SDS011;5415;59.322;18.246;2022-10-16T09:23:37;8.77;;;5.80;;
10727;SDS011;5415;59.322;18.246;2022-10-16T09:26:05;7.60;;;5.50;;
10727;SDS011;5415;59.322;18.246;2022-10-16T09:28:36;6.10;;;5.20;;
10727;SDS011;5415;59.322;18.246;2022-10-16T09:31:03;11.37;;;5.30;;
10727;SDS011;5415;59.322;18.246;2022-10-16T09:33:33;7.33;;;5.40;;
10727;SDS011;5415;59.322;18.246;2022-10-16T09:36:00;8.63;;;5.33;;
10727;SDS011;5415;59.322;18.246;2022-10-16T09:38:31;6.33;;;5.00;;
10727;SDS011;5415;59.322;18.246;2022-10-16T09:41:03;8.07;;;4.93;;
10727;SDS011;5415;59.322;18.246;2022-10-16T09:43:38;7.50;;;5.10;;
10727;SDS011;5415;59.322;18.246;2022-10-16T09:46:07;6.33;;;4.90;;
10727;SDS011;5415;59.322;18.246;2022-10-16T09:48:36;4.90;;;4.30;;
10727;SDS011;5415;59.322;18.246;2022-10-16T09:51:05;8.63;;;5.10;;
10727;SDS011;5415;59.322;18.246;2022-10-16T09:53:40;8.87;;;4.50;;
10727;SDS011;5415;59.322;18.246;2022-10-16T09:56:09;7.70;;;4.53;;
10727;SDS011;5415;59.322;18.246;2022-10-16T09:58:41;6.63;;;4.57;;
10727;SDS011;5415;59.322;18.246;2022-10-16T10:01:11;8.00;;;4.40;;
10727;SDS011;5415;59.322;18.246;2022-10-16T10:03:40;6.90;;;4.53;;
10727;SDS011;5415;59.322;18.246;2022-10-16T10:06:15;7.67;;;5.43;;
10727;SDS011;5415;59.322;18.246;2022-10-16T10:08:53;6.00;;;5.07;;
10727;SDS011;5415;59.322;18.246;2022-10-16T10:14:05;31.90;;;22.37;;
10727;SDS011;5415;59.322;18.246;2022-10-16T10:16:32;24.83;;;17.57;;
10727;SDS011;5415;59.322;18.246;2022-10-16T10:19:01;17.63;;;12.10;;
10727;SDS011;5415;59.322;18.246;2022-10-16T10:21:28;15.93;;;9.30;;
10727;SDS011;5415;59.322;18.246;2022-10-16T10:23:55;6.17;;;5.57;;
10727;SDS011;5415;59.322;18.246;2022-10-16T10:26:25;5.37;;;4.33;;
10727;SDS011;5415;59.322;18.246;2022-10-16T10:28:55;7.50;;;4.60;;
10727;SDS011;5415;59.322;18.246;2022-10-16T10:31:31;7.43;;;3.97;;
10727;SDS011;5415;59.322;18.246;2022-10-16T10:34:01;7.00;;;4.43;;
10727;SDS011;5415;59.322;18.246;2022-10-16T10:36:32;7.47;;;5.00;;
10727;SDS011;5415;59.322;18.246;2022-10-16T10:39:02;6.70;;;4.57;;
10727;SDS011;5415;59.322;18.246;2022-10-16T10:41:38;6.30;;;4.20;;
10727;SDS011;5415;59.322;18.246;2022-10-16T10:44:11;7.50;;;4.80;;
10727;SDS011;5415;59.322;18.246;2022-10-16T10:46:42;7.83;;;4.73;;
10727;SDS011;5415;59.322;18.246;2022-10-16T10:49:16;6.77;;;4.07;;
10727;SDS011;5415;59.322;18.246;2022-10-16T10:51:49;7.67;;;5.33;;
10727;SDS011;5415;59.322;18.246;2022-10-16T10:54:22;7.63;;;4.53;;
10727;SDS011;5415;59.322;18.246;2022-10-16T10:56:56;7.30;;;4.10;;
10727;SDS011;5415;59.322;18.246;2022-10-16T11:02:21;6.73;;;4.10;;
10727;SDS011;5415;59.322;18.246;2022-10-16T11:05:09;6.47;;;4.13;;
10727;SDS011;5415;59.322;18.246;2022-10-16T11:07:44;9.87;;;4.00;;
10727;SDS011;5415;59.322;18.246;2022-10-16T11:10:14;5.33;;;3.50;;
10727;SDS011;5415;59.322;18.246;2022-10-16T11:12:42;6.43;;;3.97;;
10727;SDS011;5415;59.322;18.246;2022-10-16T11:15:12;7.10;;;4.03;;
10727;SDS011;5415;59.322;18.246;2022-10-16T11:17:44;4.63;;;3.40;;
10727;SDS011;5415;59.322;18.246;2022-10-16T11:20:16;3.73;;;3.30;;
10727;SDS011;5415;59.322;18.246;2022-10-16T11:22:46;11.03;;;4.40;;
10727;SDS011;5415;59.322;18.246;2022-10-16T11:25:16;4.97;;;3.03;;
10727;SDS011;5415;59.322;18.246;2022-10-16T11:27:47;5.47;;;2.97;;
10727;SDS011;5415;59.322;18.246;2022-10-16T11:30:18;5.47;;;3.77;;
10727;SDS011;5415;59.322;18.246;2022-10-16T11:32:56;7.77;;;3.53;;
10727;SDS011;5415;59.322;18.246;2022-10-16T11:35:32;6.67;;;3.77;;
10727;SDS011;5415;59.322;18.246;2022-10-16T11:38:02;7.77;;;4.17;;
10727;SDS011;5415;59.322;18.246;2022-10-16T11:40:32;8.23;;;4.30;;
10727;SDS011;5415;59.322;18.246;2022-10-16T11:43:02;5.83;;;3.70;;
10727;SDS011;5415;59.322;18.246;2022-10-16T11:45:33;6.50;;;3.13;;
10727;SDS011;5415;59.322;18.246;2022-10-16T11:48:05;7.80;;;3.30;;
10727;SDS011;5415;59.322;18.246;2022-10-16T11:50:37;6.80;;;3.33;;
10727;SDS011;5415;59.322;18.246;2022-10-16T11:53:12;6.50;;;3.17;;
10727;SDS011;5415;59.322;18.246;2022-10-16T11:55:41;4.70;;;2.80;;
10727;SDS011;5415;59.322;18.246;2022-10-16T11:58:12;6.40;;;3.30;;
10727;SDS011;5415;59.322;18.246;2022-10-16T12:00:44;3.30;;;2.80;;
10727;SDS011;5415;59.322;18.246;2022-10-16T12:03:18;9.83;;;2.80;;
10727;SDS011;5415;59.322;18.246;2022-10-16T12:05:52;4.97;;;2.67;;
10727;SDS011;5415;59.322;18.246;2022-10-16T12:08:22;7.53;;;3.33;;
10727;SDS011;5415;59.322;18.246;2022-10-16T12:11:06;4.43;;;2.97;;
10727;SDS011;5415;59.322;18.246;2022-10-16T12:13:35;5.77;;;3.13;;
10727;SDS011;5415;59.322;18.246;2022-10-16T12:16:05;6.60;;;3.10;;
10727;SDS011;5415;59.322;18.246;2022-10-16T12:18:34;6.53;;;3.07;;
10727;SDS011;5415;59.322;18.246;2022-10-16T12:21:02;4.20;;;3.10;;
10727;SDS011;5415;59.322;18.246;2022-10-16T12:23:32;7.30;;;3.47;;
10727;SDS011;5415;59.322;18.246;2022-10-16T12:26:00;4.53;;;3.30;;
10727;SDS011;5415;59.322;18.246;2022-10-16T12:28:29;4.43;;;3.23;;
10727;SDS011;5415;59.322;18.246;2022-10-16T12:30:58;7.87;;;4.27;;
10727;SDS011;5415;59.322;18.246;2022-10-16T12:33:26;6.60;;;4.43;;
10727;SDS011;5415;59.322;18.246;2022-10-16T12:36:08;6.30;;;4.57;;
10727;SDS011;5415;59.322;18.246;2022-10-16T12:38:47;5.20;;;3.87;;
10727;SDS011;5415;59.322;18.246;2022-10-16T12:41:24;6.63;;;4.10;;
10727;SDS011;5415;59.322;18.246;2022-10-16T12:43:51;5.90;;;4.70;;
10727;SDS011;5415;59.322;18.246;2022-10-16T12:46:23;6.30;;;4.17;;
10727;SDS011;5415;59.322;18.246;2022-10-16T12:48:50;6.00;;;4.23;;
10727;SDS011;5415;59.322;18.246;2022-10-16T12:51:24;7.20;;;3.87;;
10727;SDS011;5415;59.322;18.246;2022-10-16T12:53:58;6.13;;;3.33;;
10727;SDS011;5415;59.322;18.246;2022-10-16T12:56:27;6.97;;;3.97;;
10727;SDS011;5415;59.322;18.246;2022-10-16T12:59:03;5.40;;;3.57;;
10727;SDS011;5415;59.322;18.246;2022-10-16T13:01:42;5.87;;;3.23;;
10727;SDS011;5415;59.322;18.246;2022-10-16T13:07:22;7.90;;;3.60;;
10727;SDS011;5415;59.322;18.246;2022-10-16T13:09:56;5.10;;;3.20;;
10727;SDS011;5415;59.322;18.246;2022-10-16T13:12:37;6.57;;;3.50;;
10727;SDS011;5415;59.322;18.246;2022-10-16T13:15:16;3.60;;;2.90;;
10727;SDS011;5415;59.322;18.246;2022-10-16T13:17:49;4.17;;;3.13;;
10727;SDS011;5415;59.322;18.246;2022-10-16T13:20:21;3.37;;;2.63;;
10727;SDS011;5415;59.322;18.246;2022-10-16T13:22:59;5.83;;;3.07;;
10727;SDS011;5415;59.322;18.246;2022-10-16T13:25:34;3.33;;;2.70;;
10727;SDS011;5415;59.322;18.246;2022-10-16T13:28:04;3.97;;;2.80;;
10727;SDS011;5415;59.322;18.246;2022-10-16T13:30:33;3.77;;;2.67;;
10727;SDS011;5415;59.322;18.246;2022-10-16T13:33:03;3.40;;;2.73;;
10727;SDS011;5415;59.322;18.246;2022-10-16T13:35:32;3.47;;;2.70;;
10727;SDS011;5415;59.322;18.246;2022-10-16T13:38:09;3.40;;;2.37;;
10727;SDS011;5415;59.322;18.246;2022-10-16T13:40:48;5.17;;;2.50;;
10727;SDS011;5415;59.322;18.246;2022-10-16T13:43:16;4.80;;;2.60;;
10727;SDS011;5415;59.322;18.246;2022-10-16T13:45:52;5.83;;;2.63;;
10727;SDS011;5415;59.322;18.246;2022-10-16T13:48:19;4.83;;;2.67;;
10727;SDS011;5415;59.322;18.246;2022-10-16T13:50:47;4.40;;;2.30;;
10727;SDS011;5415;59.322;18.246;2022-10-16T13:53:26;4.30;;;2.70;;
10727;SDS011;5415;59.322;18.246;2022-10-16T13:55:53;3.97;;;2.70;;
10727;SDS011;5415;59.322;18.246;2022-10-16T13:58:21;6.47;;;2.60;;
10727;SDS011;5415;59.322;18.246;2022-10-16T14:00:55;8.67;;;2.90;;
10727;SDS011;5415;59.322;18.246;2022-10-16T14:03:22;3.10;;;2.27;;
10727;SDS011;5415;59.322;18.246;2022-10-16T14:05:51;4.60;;;2.40;;
10727;SDS011;5415;59.322;18.246;2022-10-16T14:08:19;4.43;;;2.20;;
10727;SDS011;5415;59.322;18.246;2022-10-16T14:13:32;4.33;;;2.40;;
10727;SDS011;5415;59.322;18.246;2022-10-16T14:16:04;6.20;;;2.60;;
10727;SDS011;5415;59.322;18.246;2022-10-16T14:18:34;3.70;;;2.40;;
10727;SDS011;5415;59.322;18.246;2022-10-16T14:21:04;4.03;;;2.20;;
10727;SDS011;5415;59.322;18.246;2022-10-16T14:23:34;4.13;;;2.10;;
10727;SDS011;5415;59.322;18.246;2022-10-16T14:26:06;7.30;;;2.70;;
10727;SDS011;5415;59.322;18.246;2022-10-16T14:28:36;5.03;;;2.53;;
10727;SDS011;5415;59.322;18.246;2022-10-16T14:31:19;4.67;;;2.47;;
10727;SDS011;5415;59.322;18.246;2022-10-16T14:33:51;5.90;;;2.37;;
10727;SDS011;5415;59.322;18.246;2022-10-16T14:36:19;5.57;;;2.40;;
10727;SDS011;5415;59.322;18.246;2022-10-16T14:38:48;5.07;;;2.37;;
10727;SDS011;5415;59.322;18.246;2022-10-16T14:41:16;4.60;;;2.47;;
10727;SDS011;5415;59.322;18.246;2022-10-16T14:43:51;6.03;;;2.40;;
10727;SDS011;5415;59.322;18.246;2022-10-16T14:46:19;4.03;;;2.60;;
10727;SDS011;5415;59.322;18.246;2022-10-16T14:48:51;4.93;;;2.40;;
10727;SDS011;5415;59.322;18.246;2022-10-16T14:51:21;3.23;;;2.27;;
10727;SDS011;5415;59.322;18.246;2022-10-16T14:53:49;4.30;;;2.43;;
10727;SDS011;5415;59.322;18.246;2022-10-16T14:56:17;4.97;;;2.40;;
10727;SDS011;5415;59.322;18.246;2022-10-16T14:58:45;5.90;;;2.60;;
10727;SDS011;5415;59.322;18.246;2022-10-16T15:01:14;6.53;;;2.50;;